Weather at C J.H.L.(Joe) Lecomte) Heliport

Public forecast

Using degrees Celsius for public forecast. Weather courtesy of forecast.io.

Current aviation weather report (METAR) for C J.H.L.(Joe) Lecomte) Heliport

2024/07/19 03:36 (retrieved 1 hour ago)

CYOY 190336Z 25003KT 170V310 15SM FEW250 16/14 A2992 RMK CI1 DENSITY ALT 947FT LAST OBS /NEXT 191100 UTC SLP131

Closest aviation forecast (TAF) to C J.H.L.(Joe) Lecomte) Heliport

Forecast is more than 6 hours old.

Closest forecast is Roberval Airport, 101.8 nm (188.6 km) NNW.

2024/07/18 20:00 (retrieved 9 hours ago)

TAF CYRJ 181940Z 1820/1902 29012G22KT P6SM SCT040 BKN080 TEMPO 1820/1823 4SM -SHRA BR BKN040 BKN080 PROB30 1820/1822 VRB15G25KT 2SM TSRA BR BKN030CB FM182300 28010G20KT P6SM BKN080 RMK NXT FCST BY 191200Z